Ermioni — SVBA8 — position and weather

sailwx.info

Track history (hours):
 
Tides and Currents Weather Stations Pressure Air Temp Water Temp Dewpoint Dewpoint Depression Visibility Wind Speed Wind Dir Waves Ship Positions

Ermioni

Last reported at 2018-Jan-23 03:50 UTC. Time now 2018-Jan-23 12:19 UTC.
Position N 35°32' E 024°13'.

Length 80 m; draft 10 m.

Type: Tanker. MMSI: 241025000.

Date/timePositionNaut miles runAvg speedWind from/ knotsBaromVisibWave heightAir tempDewpointWater temp
2018-Jan-23 03:50N 35°32' E 024°13'37 0.9
2018-Jan-21 09:57N 36°04' E 023°51'4 7.8
2018-Jan-21 09:30N 36°08' E 023°51'4 7.8
2018-Jan-21 09:00N 36°12' E 023°50'4 7.6
2018-Jan-21 08:30N 36°15' E 023°49'4 7.6
2018-Jan-21 08:00N 36°19' E 023°48'13 7.6
2018-Jan-21 06:20N 36°32' E 023°47'3 7.6
2018-Jan-21 05:58N 36°35' E 023°46'15 8.0
2018-Jan-21 04:03N 36°50' E 023°44'2 8.0
2018-Jan-21 03:52N 36°51' E 023°44'4 8.3
2018-Jan-21 03:26N 36°55' E 023°43'5 7.7
2018-Jan-21 02:51N 36°59' E 023°42'40 7.0
2018-Jan-20 21:07N 37°38' E 023°33'2 8.0
2018-Jan-20 20:55N 37°39' E 023°31'4 8.4
2018-Jan-20 20:29N 37°39' E 023°26'4 8.2
2018-Jan-20 20:00N 37°40' E 023°21'4 8.4
2018-Jan-20 19:30N 37°40' E 023°16'3 6.4
2018-Jan-20 19:00N 37°42' E 023°13'4 7.9
2018-Jan-20 18:29N 37°46' E 023°12'4 8.0
2018-Jan-20 18:00N 37°50' E 023°11'4 8.6
2018-Jan-20 17:30N 37°53' E 023°08'3 5.6
2018-Jan-20 17:00N 37°55' E 023°05'0 0.0
2018-Jan-20 16:30N 37°55' E 023°05'0 0.0
2018-Jan-20 16:00N 37°55' E 023°05'0 0.1
2018-Jan-20 15:30N 37°55' E 023°05'0 0.1
2018-Jan-20 15:00N 37°55' E 023°05'0 0.0
2018-Jan-20 14:30N 37°55' E 023°05'0 0.0
2018-Jan-20 14:00N 37°55' E 023°05'0 0.0
2018-Jan-20 13:30N 37°55' E 023°05'0 0.0
2018-Jan-20 13:00N 37°55' E 023°05'0 0.0
2018-Jan-20 12:30N 37°55' E 023°05'0 0.0
2018-Jan-20 12:00N 37°55' E 023°05'0 0.0
2018-Jan-20 11:30N 37°55' E 023°05'0 0.0
2018-Jan-20 11:00N 37°55' E 023°05'0 0.0
2018-Jan-20 10:30N 37°55' E 023°05'0 0.0
2018-Jan-20 10:00N 37°55' E 023°05'0 0.0
2018-Jan-20 09:30N 37°55' E 023°05'0 0.0
2018-Jan-20 09:00N 37°55' E 023°05'0 0.0
2018-Jan-20 08:30N 37°55' E 023°05'0 0.0
2018-Jan-20 08:00N 37°55' E 023°05'0 0.0
2018-Jan-20 07:30N 37°55' E 023°05'0 0.0
2018-Jan-20 07:00N 37°55' E 023°05'0 0.0
2018-Jan-20 06:30N 37°55' E 023°05'0 0.0
2018-Jan-20 06:00N 37°55' E 023°05'0 0.0
2018-Jan-20 05:30N 37°55' E 023°05'0 0.0
2018-Jan-20 05:00N 37°55' E 023°05'0 0.0
2018-Jan-20 04:30N 37°55' E 023°05'0 0.0
2018-Jan-20 04:00N 37°55' E 023°05'0 0.0
2018-Jan-20 03:30N 37°55' E 023°05'0 0.0
2018-Jan-20 03:00N 37°55' E 023°05'0 0.0
2018-Jan-20 02:30N 37°55' E 023°05'0 0.0
2018-Jan-20 02:00N 37°55' E 023°05'0 0.0
2018-Jan-20 01:30N 37°55' E 023°05'0 0.0
2018-Jan-20 01:00N 37°55' E 023°05'0 0.0
2018-Jan-20 00:30N 37°55' E 023°05'0 0.0
2018-Jan-20 00:00N 37°55' E 023°05'0 0.0
2018-Jan-19 23:30N 37°55' E 023°05'0 0.0
2018-Jan-19 23:00N 37°55' E 023°05'0 0.0
2018-Jan-19 22:30N 37°55' E 023°05'0 0.0
2018-Jan-19 22:00N 37°55' E 023°05'0 0.0
2018-Jan-19 21:30N 37°55' E 023°05'0 0.0
2018-Jan-19 21:00N 37°55' E 023°05'1 1.6
2018-Jan-19 20:30N 37°54' E 023°06'2 4.8
2018-Jan-19 20:00N 37°53' E 023°08'4 8.4
2018-Jan-19 19:30N 37°50' E 023°12'5 9.3
2018-Jan-19 19:00N 37°45' E 023°13'4 9.0
2018-Jan-19 18:30N 37°41' E 023°15'5 9.1
2018-Jan-19 18:00N 37°40' E 023°20'5 9.2
2018-Jan-19 17:30N 37°39' E 023°26'4 8.8
2018-Jan-19 17:00N 37°37' E 023°31'5 9.1
2018-Jan-19 16:30N 37°33' E 023°34'11 9.0
2018-Jan-19 15:13N 37°22' E 023°37'44 8.9
2018-Jan-19 10:16N 36°38' E 023°33'  
Track history (hours):
 
Tides and Currents Weather Stations Pressure Air Temp Water Temp Dewpoint Dewpoint Depression Visibility Wind Speed Wind Dir Waves Ship Positions

Ermioni

Last reported at 2018-Jan-23 03:50 UTC. Time now 2018-Jan-23 12:19 UTC.
Position N 35°32' E 024°13'.

Length 80 m; draft 10 m.

Type: Tanker. MMSI: 241025000.

Date/timePositionNaut miles runAvg speedWind from/ knotsBaromVisibWave heightAir tempDewpointWater temp
2018-Jan-23 03:50N 35°32' E 024°13'37 0.9
2018-Jan-21 09:57N 36°04' E 023°51'4 7.8
2018-Jan-21 09:30N 36°08' E 023°51'4 7.8
2018-Jan-21 09:00N 36°12' E 023°50'4 7.6
2018-Jan-21 08:30N 36°15' E 023°49'4 7.6
2018-Jan-21 08:00N 36°19' E 023°48'13 7.6
2018-Jan-21 06:20N 36°32' E 023°47'3 7.6
2018-Jan-21 05:58N 36°35' E 023°46'15 8.0
2018-Jan-21 04:03N 36°50' E 023°44'2 8.0
2018-Jan-21 03:52N 36°51' E 023°44'4 8.3
2018-Jan-21 03:26N 36°55' E 023°43'5 7.7
2018-Jan-21 02:51N 36°59' E 023°42'40 7.0
2018-Jan-20 21:07N 37°38' E 023°33'2 8.0
2018-Jan-20 20:55N 37°39' E 023°31'4 8.4
2018-Jan-20 20:29N 37°39' E 023°26'4 8.2
2018-Jan-20 20:00N 37°40' E 023°21'4 8.4
2018-Jan-20 19:30N 37°40' E 023°16'3 6.4
2018-Jan-20 19:00N 37°42' E 023°13'4 7.9
2018-Jan-20 18:29N 37°46' E 023°12'4 8.0
2018-Jan-20 18:00N 37°50' E 023°11'4 8.6
2018-Jan-20 17:30N 37°53' E 023°08'3 5.6
2018-Jan-20 17:00N 37°55' E 023°05'0 0.0
2018-Jan-20 16:30N 37°55' E 023°05'0 0.0
2018-Jan-20 16:00N 37°55' E 023°05'0 0.1
2018-Jan-20 15:30N 37°55' E 023°05'0 0.1
2018-Jan-20 15:00N 37°55' E 023°05'0 0.0
2018-Jan-20 14:30N 37°55' E 023°05'0 0.0
2018-Jan-20 14:00N 37°55' E 023°05'0 0.0
2018-Jan-20 13:30N 37°55' E 023°05'0 0.0
2018-Jan-20 13:00N 37°55' E 023°05'0 0.0
2018-Jan-20 12:30N 37°55' E 023°05'0 0.0
2018-Jan-20 12:00N 37°55' E 023°05'0 0.0
2018-Jan-20 11:30N 37°55' E 023°05'0 0.0
2018-Jan-20 11:00N 37°55' E 023°05'0 0.0
2018-Jan-20 10:30N 37°55' E 023°05'0 0.0
2018-Jan-20 10:00N 37°55' E 023°05'0 0.0
2018-Jan-20 09:30N 37°55' E 023°05'0 0.0
2018-Jan-20 09:00N 37°55' E 023°05'0 0.0
2018-Jan-20 08:30N 37°55' E 023°05'0 0.0
2018-Jan-20 08:00N 37°55' E 023°05'0 0.0
2018-Jan-20 07:30N 37°55' E 023°05'0 0.0
2018-Jan-20 07:00N 37°55' E 023°05'0 0.0
2018-Jan-20 06:30N 37°55' E 023°05'0 0.0
2018-Jan-20 06:00N 37°55' E 023°05'0 0.0
2018-Jan-20 05:30N 37°55' E 023°05'0 0.0
2018-Jan-20 05:00N 37°55' E 023°05'0 0.0
2018-Jan-20 04:30N 37°55' E 023°05'0 0.0
2018-Jan-20 04:00N 37°55' E 023°05'0 0.0
2018-Jan-20 03:30N 37°55' E 023°05'0 0.0
2018-Jan-20 03:00N 37°55' E 023°05'0 0.0
2018-Jan-20 02:30N 37°55' E 023°05'0 0.0
2018-Jan-20 02:00N 37°55' E 023°05'0 0.0
2018-Jan-20 01:30N 37°55' E 023°05'0 0.0
2018-Jan-20 01:00N 37°55' E 023°05'0 0.0
2018-Jan-20 00:30N 37°55' E 023°05'0 0.0
2018-Jan-20 00:00N 37°55' E 023°05'0 0.0
2018-Jan-19 23:30N 37°55' E 023°05'0 0.0
2018-Jan-19 23:00N 37°55' E 023°05'0 0.0
2018-Jan-19 22:30N 37°55' E 023°05'0 0.0
2018-Jan-19 22:00N 37°55' E 023°05'0 0.0
2018-Jan-19 21:30N 37°55' E 023°05'0 0.0
2018-Jan-19 21:00N 37°55' E 023°05'1 1.6
2018-Jan-19 20:30N 37°54' E 023°06'2 4.8
2018-Jan-19 20:00N 37°53' E 023°08'4 8.4
2018-Jan-19 19:30N 37°50' E 023°12'5 9.3
2018-Jan-19 19:00N 37°45' E 023°13'4 9.0
2018-Jan-19 18:30N 37°41' E 023°15'5 9.1
2018-Jan-19 18:00N 37°40' E 023°20'5 9.2
2018-Jan-19 17:30N 37°39' E 023°26'4 8.8
2018-Jan-19 17:00N 37°37' E 023°31'5 9.1
2018-Jan-19 16:30N 37°33' E 023°34'11 9.0
2018-Jan-19 15:13N 37°22' E 023°37'44 8.9
2018-Jan-19 10:16N 36°38' E 023°33'  

Dump ship's entire track history